createdAt,value
2022-12-19T00:00:18.753Z,83.97
2022-12-19T00:03:21.929Z,84.74
2022-12-19T00:06:25.618Z,84.35
2022-12-19T00:09:29.191Z,84.07
2022-12-19T00:12:33.444Z,84.27
2022-12-19T00:15:37.065Z,84.29
2022-12-19T00:18:40.280Z,83.15
2022-12-19T00:21:43.013Z,83.71
2022-12-19T00:24:45.781Z,82.80
2022-12-19T00:27:49.870Z,82.98
2022-12-19T00:30:54.006Z,82.25
2022-12-19T00:33:58.885Z,82.60
2022-12-19T00:37:01.659Z,83.73
2022-12-19T00:40:05.379Z,83.59
2022-12-19T00:43:09.682Z,84.22
2022-12-19T00:46:14.895Z,84.52
2022-12-19T00:49:17.859Z,84.60
2022-12-19T00:52:21.309Z,84.42
2022-12-19T00:55:25.307Z,84.82
2022-12-19T00:58:33.224Z,84.76
2022-12-19T01:01:41.170Z,85.48
2022-12-19T01:04:44.651Z,86.21
2022-12-19T01:07:47.415Z,86.21
2022-12-19T01:10:51.417Z,85.66
2022-12-19T01:13:55.030Z,85.30
2022-12-19T01:16:58.012Z,85.96
2022-12-19T01:20:01.156Z,86.71
2022-12-19T01:23:04.240Z,85.96
2022-12-19T01:26:07.615Z,85.41
2022-12-19T01:29:12.012Z,85.41
2022-12-19T01:32:15.065Z,85.58
2022-12-19T01:35:21.779Z,85.31
2022-12-19T01:38:25.021Z,85.83
2022-12-19T01:41:28.181Z,85.44
2022-12-19T01:44:35.163Z,85.47
2022-12-19T01:47:46.532Z,86.07
2022-12-19T01:51:01.237Z,85.46
2022-12-19T01:54:10.969Z,86.15
2022-12-19T01:57:16.724Z,86.08
2022-12-19T02:00:21.641Z,86.32
2022-12-19T02:03:29.191Z,86.69
2022-12-19T02:06:35.996Z,85.76
2022-12-19T02:09:38.887Z,85.68
2022-12-19T02:12:47.519Z,85.77
2022-12-19T02:16:00.070Z,86.21
2022-12-19T02:19:29.298Z,87.09
2022-12-19T02:22:44.856Z,86.92
2022-12-19T02:26:04.604Z,87.80
2022-12-19T02:29:30.905Z,86.86
2022-12-19T02:32:43.388Z,88.11
2022-12-19T02:35:55.262Z,89.05
2022-12-19T02:39:01.932Z,88.76
2022-12-19T02:42:08.629Z,89.30
2022-12-19T02:45:19.206Z,88.73
2022-12-19T02:48:28.620Z,89.41
2022-12-19T02:51:31.341Z,89.31
2022-12-19T02:54:34.109Z,89.15
2022-12-19T02:57:47.661Z,89.25
2022-12-19T03:00:56.707Z,89.85
2022-12-19T03:04:12.581Z,90.07
2022-12-19T03:07:25.859Z,90.27
2022-12-19T03:10:37.590Z,90.83
2022-12-19T03:13:45.873Z,90.16
2022-12-19T03:16:48.927Z,91.99
2022-12-19T03:19:53.461Z,91.82
2022-12-19T03:22:56.593Z,91.62
2022-12-19T03:26:05.167Z,91.81
2022-12-19T03:29:13.694Z,90.92
2022-12-19T03:32:18.844Z,91.41
2022-12-19T03:35:26.126Z,90.94
2022-12-19T03:38:30.073Z,90.38
2022-12-19T03:41:51.883Z,90.50
2022-12-19T03:44:56.886Z,90.67
2022-12-19T03:48:04.739Z,90.46
2022-12-19T03:51:18.472Z,90.14
2022-12-19T03:54:25.630Z,89.97
2022-12-19T03:57:32.081Z,90.00
2022-12-19T04:00:37.677Z,90.96
2022-12-19T04:03:40.581Z,90.69
2022-12-19T04:06:47.351Z,90.25
2022-12-19T04:09:50.867Z,90.30
2022-12-19T04:12:57.341Z,89.93
2022-12-19T04:16:09.869Z,90.88
2022-12-19T04:19:19.778Z,91.11
2022-12-19T04:22:30.021Z,91.56
2022-12-19T04:25:39.775Z,91.27
2022-12-19T04:28:48.358Z,91.56
2022-12-19T04:31:51.768Z,91.75
2022-12-19T04:34:55.235Z,92.70
2022-12-19T04:37:59.962Z,92.73
2022-12-19T04:41:02.941Z,92.83
2022-12-19T04:44:06.163Z,93.07
2022-12-19T04:47:09.047Z,93.26
2022-12-19T04:50:11.920Z,93.02
2022-12-19T04:53:16.136Z,93.58
2022-12-19T04:56:18.876Z,94.09
2022-12-19T04:59:21.552Z,94.79
2022-12-19T05:02:25.202Z,95.00
2022-12-19T05:05:28.280Z,94.72
2022-12-19T05:08:32.615Z,95.61
2022-12-19T05:11:36.138Z,95.17
2022-12-19T05:14:39.384Z,95.71
2022-12-19T05:17:43.083Z,95.74
2022-12-19T05:20:49.798Z,95.61
2022-12-19T05:23:53.952Z,95.74
2022-12-19T05:26:56.633Z,95.52
2022-12-19T05:29:59.387Z,96.03
2022-12-19T05:33:02.265Z,95.88
2022-12-19T05:36:05.939Z,95.62
2022-12-19T05:39:10.038Z,95.80
2022-12-19T05:42:13.249Z,95.96
2022-12-19T05:45:16.184Z,95.28
2022-12-19T05:48:19.327Z,95.51
2022-12-19T05:51:22.287Z,95.07
2022-12-19T05:54:26.491Z,95.35
2022-12-19T05:57:29.377Z,95.07
2022-12-19T06:00:32.317Z,95.36
2022-12-19T06:03:35.135Z,95.30
2022-12-19T06:06:38.134Z,96.02
2022-12-19T06:09:42.429Z,95.96
2022-12-19T06:12:45.162Z,95.83
2022-12-19T06:15:47.948Z,96.04
2022-12-19T06:18:50.955Z,95.43
2022-12-19T06:21:53.685Z,95.59
2022-12-19T06:24:58.960Z,95.84
2022-12-19T06:28:01.795Z,95.54
2022-12-19T06:31:06.457Z,95.43
2022-12-19T06:34:32.996Z,95.57
2022-12-19T06:37:39.342Z,95.80
2022-12-19T06:41:14.267Z,95.77
2022-12-19T06:44:18.403Z,95.64
2022-12-19T06:47:22.807Z,96.04
2022-12-19T06:50:25.762Z,95.65
2022-12-19T06:53:28.631Z,95.85
2022-12-19T06:56:37.338Z,96.30
2022-12-19T06:59:41.014Z,96.91
2022-12-19T07:02:47.084Z,96.60
2022-12-19T07:05:50.011Z,96.21
2022-12-19T07:08:54.643Z,95.88
2022-12-19T07:11:59.320Z,95.06
2022-12-19T07:15:02.055Z,94.76
2022-12-19T07:18:07.985Z,94.94
2022-12-19T07:21:12.423Z,95.17
2022-12-19T07:24:16.016Z,94.90
2022-12-19T07:27:20.621Z,95.25
2022-12-19T07:30:23.578Z,94.90
2022-12-19T07:33:26.322Z,95.21
2022-12-19T07:36:29.038Z,95.30
2022-12-19T07:39:32.608Z,95.28
2022-12-19T07:42:36.839Z,95.41
2022-12-19T07:45:40.149Z,95.61
2022-12-19T07:48:42.993Z,95.38
2022-12-19T07:51:45.855Z,94.96
2022-12-19T07:54:49.148Z,94.73
2022-12-19T07:57:53.590Z,94.35
2022-12-19T08:00:57.134Z,94.72
2022-12-19T08:03:59.935Z,94.73
2022-12-19T08:07:03.292Z,94.68
2022-12-19T08:10:07.781Z,94.17
2022-12-19T08:13:12.545Z,94.05
2022-12-19T08:16:16.211Z,94.25
2022-12-19T08:19:23.406Z,93.15
2022-12-19T08:22:30.444Z,93.50
2022-12-19T08:25:33.367Z,93.00
2022-12-19T08:28:38.226Z,93.53
2022-12-19T08:31:41.060Z,93.06
2022-12-19T08:34:43.894Z,92.27
2022-12-19T08:37:46.641Z,92.42
2022-12-19T08:40:54.633Z,92.33
2022-12-19T08:43:58.768Z,92.03
2022-12-19T08:47:02.378Z,91.80
2022-12-19T08:50:06.315Z,91.82
2022-12-19T08:53:09.211Z,92.03
2022-12-19T08:56:14.512Z,92.13
2022-12-19T08:59:30.229Z,91.49
2022-12-19T09:02:34.330Z,91.45
2022-12-19T09:06:05.283Z,92.00
2022-12-19T09:09:00.711Z,91.63
2022-12-19T09:12:03.665Z,91.26
2022-12-19T09:15:08.673Z,91.76
2022-12-19T09:18:11.873Z,91.86
2022-12-19T09:21:15.421Z,92.44
2022-12-19T09:24:18.209Z,91.60
2022-12-19T09:27:21.798Z,91.48
2022-12-19T09:30:29.147Z,90.97
2022-12-19T09:33:42.962Z,90.15
2022-12-19T09:36:46.425Z,90.92
2022-12-19T09:39:50.081Z,90.54
2022-12-19T09:43:05.233Z,89.75
2022-12-19T09:46:17.156Z,88.08
2022-12-19T09:49:23.290Z,87.94
2022-12-19T09:52:33.031Z,87.86
2022-12-19T09:55:41.074Z,88.45
2022-12-19T09:58:48.258Z,88.21
2022-12-19T10:01:58.796Z,87.70
2022-12-19T10:05:41.542Z,87.98
2022-12-19T10:08:40.578Z,87.92
2022-12-19T10:12:44.271Z,87.71
2022-12-19T10:15:56.265Z,87.70
2022-12-19T10:19:08.144Z,88.07
2022-12-19T10:22:19.882Z,87.76
2022-12-19T10:25:37.337Z,87.60
2022-12-19T10:29:02.417Z,84.69
2022-12-19T10:32:19.512Z,84.43
2022-12-19T10:35:28.512Z,84.98
2022-12-19T10:38:38.918Z,84.37
2022-12-19T10:41:50.493Z,84.43
2022-12-19T10:44:55.286Z,84.44
2022-12-19T10:47:59.430Z,83.16
2022-12-19T10:51:06.938Z,83.44
2022-12-19T10:54:10.467Z,82.63
2022-12-19T10:57:23.309Z,82.63
2022-12-19T11:00:26.213Z,81.88
2022-12-19T11:03:29.237Z,81.47
2022-12-19T11:06:47.364Z,80.91
2022-12-19T11:10:05.348Z,80.65
2022-12-19T11:18:08.704Z,79.20
2022-12-19T11:21:12.817Z,78.46
2022-12-19T11:29:43.774Z,78.85
2022-12-19T11:29:46.779Z,77.06
2022-12-19T11:30:49.023Z,77.55
2022-12-19T11:31:55.664Z,76.15
2022-12-19T11:34:25.492Z,76.21
2022-12-19T11:37:38.235Z,75.16
2022-12-19T11:40:49.433Z,74.79
2022-12-19T11:43:58.897Z,74.94
2022-12-19T11:47:13.911Z,75.00
2022-12-19T11:50:20.053Z,74.33
2022-12-19T11:53:29.827Z,73.68
2022-12-19T11:56:36.213Z,72.79
2022-12-19T11:59:41.216Z,71.33
2022-12-19T12:03:03.135Z,71.38
2022-12-19T12:06:13.813Z,72.88
2022-12-19T12:13:41.868Z,73.67
2022-12-19T12:22:29.125Z,74.71
2022-12-19T12:28:57.070Z,74.45
2022-12-19T12:31:00.296Z,73.62
2022-12-19T12:31:38.740Z,75.72
2022-12-19T12:31:51.384Z,75.46
2022-12-19T12:31:52.736Z,73.55
2022-12-19T12:35:56.481Z,76.36
2022-12-19T12:38:22.066Z,76.89
2022-12-19T12:41:56.235Z,77.24
2022-12-19T12:45:00.616Z,78.28
2022-12-19T12:48:16.489Z,77.89
2022-12-19T12:51:19.596Z,77.62
2022-12-19T12:54:25.352Z,77.70
2022-12-19T12:57:36.740Z,77.60
2022-12-19T13:00:39.728Z,77.40
2022-12-19T13:03:52.378Z,75.85
2022-12-19T13:07:40.168Z,76.13
2022-12-19T13:10:54.827Z,77.11
2022-12-19T13:13:58.536Z,76.50
2022-12-19T13:17:02.686Z,75.62
2022-12-19T13:20:41.865Z,73.21
2022-12-19T13:23:47.699Z,71.77
2022-12-19T13:26:52.517Z,71.78
2022-12-19T13:30:03.680Z,71.83
2022-12-19T13:33:09.620Z,72.21
2022-12-19T13:39:51.353Z,73.37
2022-12-19T13:40:20.520Z,75.07
2022-12-19T13:43:47.562Z,75.92
2022-12-19T13:46:50.942Z,77.16
2022-12-19T13:49:54.907Z,77.78
2022-12-19T13:52:59.754Z,78.86
2022-12-19T13:56:05.221Z,79.90
2022-12-19T13:59:09.112Z,80.16
2022-12-19T14:02:21.535Z,80.25
2022-12-19T14:05:44.440Z,80.59
2022-12-19T14:09:46.296Z,81.05
2022-12-19T14:13:55.160Z,82.63
2022-12-19T14:15:59.755Z,83.15
2022-12-19T14:19:03.890Z,83.08
2022-12-19T14:22:25.818Z,82.53
2022-12-19T14:28:15.324Z,83.82
2022-12-19T14:29:05.181Z,83.81
2022-12-19T14:33:45.213Z,85.68
2022-12-19T14:36:09.880Z,85.78
2022-12-19T14:39:22.370Z,85.08
2022-12-19T14:43:57.176Z,85.92
2022-12-19T14:52:27.892Z,86.41
2022-12-19T14:54:13.316Z,87.21
2022-12-19T14:54:33.738Z,87.18
2022-12-19T14:56:59.069Z,86.88
2022-12-19T15:01:07.746Z,86.99
2022-12-19T15:04:48.981Z,87.81
2022-12-19T15:07:22.123Z,88.89
2022-12-19T15:11:07.819Z,88.94
2022-12-19T15:14:56.894Z,89.11
2022-12-19T15:17:22.537Z,89.72
2022-12-19T15:20:25.299Z,89.93
2022-12-19T15:23:30.056Z,89.67
2022-12-19T15:26:35.643Z,89.43
2022-12-19T15:29:38.881Z,90.62
2022-12-19T15:32:48.943Z,89.30
2022-12-19T15:35:51.680Z,90.27
2022-12-19T15:38:54.491Z,89.65
2022-12-19T15:42:00.778Z,89.93
2022-12-19T15:45:03.574Z,90.43
2022-12-19T15:48:10.493Z,91.85
2022-12-19T15:51:14.498Z,91.95
2022-12-19T15:57:43.869Z,91.86
2022-12-19T16:00:51.825Z,91.58
2022-12-19T16:03:57.854Z,91.12
2022-12-19T16:07:00.726Z,91.83
2022-12-19T16:10:03.715Z,91.77
2022-12-19T16:13:06.469Z,92.01
2022-12-19T16:16:15.764Z,90.99
2022-12-19T16:19:31.517Z,91.64
2022-12-19T16:22:34.770Z,92.16
2022-12-19T16:25:41.295Z,92.14
2022-12-19T16:28:44.048Z,91.72
2022-12-19T16:31:46.911Z,92.13
2022-12-19T16:34:51.794Z,92.29
2022-12-19T16:37:54.781Z,93.01
2022-12-19T16:40:58.261Z,93.29
2022-12-19T16:44:01.915Z,92.36
2022-12-19T16:47:04.781Z,93.39
2022-12-19T16:50:16.029Z,93.29
2022-12-19T16:53:19.162Z,93.19
2022-12-19T16:56:31.354Z,93.64
2022-12-19T16:59:36.740Z,93.83
2022-12-19T17:02:44.787Z,95.46
2022-12-19T17:05:48.924Z,95.56
2022-12-19T17:08:51.591Z,94.95
2022-12-19T17:11:58.055Z,94.00
2022-12-19T17:15:00.738Z,94.18
2022-12-19T17:18:10.834Z,93.49
2022-12-19T17:21:19.039Z,94.59
2022-12-19T17:24:21.673Z,94.18
2022-12-19T17:27:25.744Z,92.75
2022-12-19T17:30:28.415Z,92.29
2022-12-19T17:33:35.410Z,92.73
2022-12-19T17:36:39.471Z,92.29
2022-12-19T17:39:42.739Z,92.23
2022-12-19T17:42:45.537Z,92.00
2022-12-19T17:45:48.780Z,91.68
2022-12-19T17:48:53.711Z,91.51
2022-12-19T17:51:58.392Z,91.94
2022-12-19T17:55:01.081Z,91.33
2022-12-19T17:58:03.712Z,91.54
2022-12-19T18:01:06.707Z,92.25
2022-12-19T18:04:14.849Z,92.25
2022-12-19T18:07:20.189Z,91.55
2022-12-19T18:10:25.868Z,91.16
2022-12-19T18:13:30.295Z,91.69
2022-12-19T18:16:33.756Z,91.60
2022-12-19T18:19:36.931Z,92.02
2022-12-19T18:22:42.683Z,91.40
2022-12-19T18:25:45.705Z,92.17
2022-12-19T18:28:49.006Z,91.85
2022-12-19T18:31:52.406Z,91.80
2022-12-19T18:34:55.163Z,91.84
2022-12-19T18:38:01.528Z,92.96
2022-12-19T18:41:04.280Z,92.90
2022-12-19T18:44:06.934Z,92.14
2022-12-19T18:47:20.710Z,92.61
2022-12-19T18:50:26.295Z,92.54
2022-12-19T18:53:35.376Z,94.32
2022-12-19T18:56:38.674Z,94.18
2022-12-19T18:59:41.420Z,94.05
2022-12-19T19:02:49.190Z,93.30
2022-12-19T19:05:52.373Z,93.50
2022-12-19T19:08:58.441Z,93.68
2022-12-19T19:12:01.506Z,94.61
2022-12-19T19:15:04.147Z,94.51
2022-12-19T19:18:09.367Z,94.36
2022-12-19T19:21:14.374Z,94.20
2022-12-19T19:24:21.853Z,94.39
2022-12-19T19:27:24.959Z,95.10
2022-12-19T19:30:28.019Z,94.30
2022-12-19T19:33:34.243Z,94.60
2022-12-19T19:36:41.103Z,93.63
2022-12-19T19:39:45.804Z,93.95
2022-12-19T19:42:48.455Z,92.67
2022-12-19T19:45:51.885Z,91.65
2022-12-19T19:48:54.631Z,92.02
2022-12-19T19:52:02.444Z,92.60
2022-12-19T19:55:09.407Z,92.29
2022-12-19T19:58:12.095Z,93.57
2022-12-19T20:01:15.416Z,93.23
2022-12-19T20:04:18.501Z,93.54
2022-12-19T20:07:21.178Z,94.17
2022-12-19T20:10:25.368Z,94.01
2022-12-19T20:13:30.160Z,93.94
2022-12-19T20:16:33.517Z,94.25
2022-12-19T20:19:36.280Z,93.85
2022-12-19T20:22:38.960Z,93.45
2022-12-19T20:25:43.261Z,93.57
2022-12-19T20:28:49.335Z,94.10
2022-12-19T20:31:52.916Z,93.79
2022-12-19T20:34:55.579Z,93.43
2022-12-19T20:38:00.398Z,93.39
2022-12-19T20:41:05.048Z,93.82
2022-12-19T20:44:07.733Z,94.32
2022-12-19T20:47:10.846Z,93.45
2022-12-19T20:50:16.019Z,94.46
2022-12-19T20:53:18.917Z,94.57
2022-12-19T20:56:25.847Z,95.24
2022-12-19T20:59:28.542Z,95.71
2022-12-19T21:02:52.492Z,95.57
2022-12-19T21:05:54.391Z,94.85
2022-12-19T21:08:58.117Z,95.00
2022-12-19T21:12:02.152Z,94.27
2022-12-19T21:15:05.414Z,94.59
2022-12-19T21:18:12.367Z,94.36
2022-12-19T21:21:25.043Z,94.48
2022-12-19T21:24:34.596Z,95.19
2022-12-19T21:27:49.152Z,94.98
2022-12-19T21:31:01.887Z,94.43
2022-12-19T21:34:13.267Z,95.22
2022-12-19T21:37:25.347Z,94.86
2022-12-19T21:40:41.847Z,94.98
2022-12-19T21:43:55.715Z,94.38
2022-12-19T21:50:57.573Z,93.69
2022-12-19T21:54:13.547Z,93.14
2022-12-19T21:57:21.812Z,93.79
2022-12-19T22:00:30.321Z,93.64
2022-12-19T22:03:37.022Z,94.34
2022-12-19T22:06:43.095Z,93.49
2022-12-19T22:09:50.116Z,93.15
2022-12-19T22:12:55.801Z,92.58
2022-12-19T22:16:06.812Z,92.81
2022-12-19T22:19:18.115Z,92.88
2022-12-19T22:22:24.683Z,93.14
2022-12-19T22:25:30.386Z,93.18
2022-12-19T22:28:40.650Z,92.72
2022-12-19T22:31:50.785Z,92.41
2022-12-19T22:34:57.797Z,91.83
2022-12-19T22:38:06.786Z,91.68
2022-12-19T22:41:13.096Z,91.96
2022-12-19T22:44:22.083Z,92.94
2022-12-19T22:47:31.582Z,92.77
2022-12-19T22:50:39.638Z,92.45
2022-12-19T22:53:46.204Z,93.12
2022-12-19T22:56:53.989Z,92.41
2022-12-19T23:03:28.768Z,92.81
2022-12-19T23:06:45.008Z,92.42
2022-12-19T23:10:00.689Z,92.10
2022-12-19T23:13:21.108Z,92.76
2022-12-19T23:16:37.441Z,92.90
2022-12-19T23:19:46.673Z,92.69
2022-12-19T23:23:03.956Z,93.13
2022-12-19T23:26:15.902Z,92.90
2022-12-19T23:29:28.751Z,91.66
2022-12-19T23:32:37.184Z,92.17
2022-12-19T23:35:50.860Z,93.21
2022-12-19T23:39:10.664Z,92.37
2022-12-19T23:42:26.717Z,91.00
2022-12-19T23:45:49.846Z,91.56
2022-12-19T23:49:20.788Z,93.01
2022-12-19T23:52:34.351Z,93.04
2022-12-19T23:55:44.099Z,91.90
2022-12-19T23:58:52.628Z,92.69
